NJE2AW SCQP-SCIE
Flight info
| Callsign | NJE2AW |
|---|---|
| Flight time | N/A |
| Altitude | 24000 |
| Route | KIDEM3C KIDEM T104 ANGOL ANGOL5A |
| Aircraft | B717/M-SDE3FGHIRWY/LB1 |
Departure
| Time | N/A |
|---|---|
| Airport | La Araucanía International Airport (SCQP) |
Arrival
| Time | 2026-05-05 18:03 |
|---|---|
| Airport | Carriel Sur International Airport (SCIE) |
| Time | Latitude | Longitude | Altitude | Speed | Heading |
|---|---|---|---|---|---|
| 2026-05-05 17:46 | -37.48004 | -72.78205 | 17005 ft | 357 kts | 338° |
| 2026-05-05 17:47 | -37.45647 | -72.79090 | 16352 ft | 350 kts | 338° |
| 2026-05-05 17:47 | -37.43331 | -72.79960 | 15722 ft | 344 kts | 338° |
| 2026-05-05 17:47 | -37.41057 | -72.80817 | 15125 ft | 338 kts | 338° |
| 2026-05-05 17:47 | -37.38828 | -72.81658 | 14546 ft | 331 kts | 338° |
| 2026-05-05 17:48 | -37.36642 | -72.82480 | 13992 ft | 325 kts | 339° |
| 2026-05-05 17:48 | -37.34497 | -72.83293 | 13430 ft | 319 kts | 337° |
| 2026-05-05 17:48 | -37.32551 | -72.84555 | 12739 ft | 314 kts | 322° |
| 2026-05-05 17:48 | -37.30956 | -72.86409 | 12068 ft | 313 kts | 313° |
| 2026-05-05 17:49 | -37.29531 | -72.88424 | 11423 ft | 312 kts | 313° |
| 2026-05-05 17:49 | -37.28066 | -72.90436 | 10730 ft | 312 kts | 314° |
| 2026-05-05 17:49 | -37.26611 | -72.92374 | 10499 ft | 295 kts | 314° |
| 2026-05-05 17:49 | -37.25236 | -72.94178 | 10388 ft | 277 kts | 314° |
| 2026-05-05 17:50 | -37.23932 | -72.95866 | 10288 ft | 261 kts | 315° |
| 2026-05-05 17:50 | -37.22692 | -72.97451 | 10209 ft | 250 kts | 315° |
| 2026-05-05 17:50 | -37.21478 | -72.99006 | 9983 ft | 249 kts | 315° |
| 2026-05-05 17:50 | -37.20273 | -73.00565 | 9738 ft | 249 kts | 315° |
| 2026-05-05 17:51 | -37.19096 | -73.02110 | 9476 ft | 240 kts | 315° |
| 2026-05-05 17:51 | -37.17965 | -73.03614 | 9235 ft | 234 kts | 314° |
| 2026-05-05 17:51 | -37.16849 | -73.05077 | 9020 ft | 230 kts | 315° |
| 2026-05-05 17:51 | -37.15707 | -73.06534 | 8633 ft | 244 kts | 316° |
| 2026-05-05 17:52 | -37.15288 | -73.07065 | 8479 ft | 244 kts | 315° |
| 2026-05-05 17:53 | -37.14856 | -73.07614 | 8353 ft | 240 kts | 315° |
| 2026-05-05 17:53 | -37.13722 | -73.09068 | 8181 ft | 226 kts | 315° |
| 2026-05-05 17:53 | -37.12644 | -73.10438 | 8008 ft | 215 kts | 316° |
| 2026-05-05 17:53 | -37.11599 | -73.11751 | 7885 ft | 209 kts | 316° |
| 2026-05-05 17:54 | -37.10594 | -73.13007 | 7763 ft | 199 kts | 315° |
| 2026-05-05 17:54 | -37.09661 | -73.14231 | 7631 ft | 189 kts | 315° |
| 2026-05-05 17:54 | -37.08789 | -73.15397 | 7567 ft | 181 kts | 315° |
| 2026-05-05 17:54 | -37.07944 | -73.16530 | 7398 ft | 180 kts | 315° |
| 2026-05-05 17:55 | -37.07090 | -73.17668 | 7048 ft | 179 kts | 315° |
| 2026-05-05 17:55 | -37.06232 | -73.18807 | 6593 ft | 180 kts | 316° |
| 2026-05-05 17:55 | -37.05362 | -73.19927 | 6213 ft | 178 kts | 319° |
| 2026-05-05 17:55 | -37.04300 | -73.20702 | 5880 ft | 178 kts | 339° |
| 2026-05-05 17:56 | -37.03078 | -73.20971 | 5632 ft | 180 kts | 355° |
| 2026-05-05 17:56 | -37.01828 | -73.20729 | 5378 ft | 185 kts | 12° |
| 2026-05-05 17:56 | -37.00644 | -73.20051 | 4963 ft | 188 kts | 20° |
| 2026-05-05 17:56 | -36.99485 | -73.19325 | 4668 ft | 184 kts | 19° |
| 2026-05-05 17:57 | -36.98361 | -73.18641 | 4403 ft | 176 kts | 18° |
| 2026-05-05 17:57 | -36.97267 | -73.17999 | 4167 ft | 173 kts | 18° |
| 2026-05-05 17:57 | -36.96176 | -73.17379 | 3935 ft | 172 kts | 18° |
| 2026-05-05 17:57 | -36.95089 | -73.16745 | 3713 ft | 172 kts | 18° |
| 2026-05-05 17:58 | -36.94009 | -73.16095 | 3501 ft | 172 kts | 19° |
| 2026-05-05 17:58 | -36.93293 | -73.15668 | 3365 ft | 172 kts | 18° |
| 2026-05-05 17:58 | -36.92214 | -73.15039 | 3159 ft | 169 kts | 18° |
| 2026-05-05 17:58 | -36.91172 | -73.14431 | 2951 ft | 162 kts | 18° |
| 2026-05-05 17:59 | -36.90171 | -73.13850 | 2740 ft | 156 kts | 18° |
| 2026-05-05 17:59 | -36.89199 | -73.13291 | 2525 ft | 152 kts | 18° |
| 2026-05-05 17:59 | -36.88251 | -73.12741 | 2320 ft | 149 kts | 18° |
| 2026-05-05 17:59 | -36.87324 | -73.12195 | 2100 ft | 145 kts | 19° |
| 2026-05-05 18:00 | -36.86435 | -73.11672 | 1941 ft | 137 kts | 19° |
| 2026-05-05 18:00 | -36.85631 | -73.11191 | 1772 ft | 120 kts | 18° |
| 2026-05-05 18:00 | -36.84922 | -73.10773 | 1630 ft | 108 kts | 18° |
| 2026-05-05 18:00 | -36.84238 | -73.10375 | 1451 ft | 110 kts | 20° |
| 2026-05-05 18:01 | -36.83539 | -73.09968 | 1263 ft | 112 kts | 19° |
| 2026-05-05 18:01 | -36.82831 | -73.09569 | 1144 ft | 111 kts | 20° |
| 2026-05-05 18:01 | -36.82121 | -73.09163 | 1042 ft | 115 kts | 21° |
| 2026-05-05 18:01 | -36.81384 | -73.08725 | 839 ft | 118 kts | 24° |
| 2026-05-05 18:02 | -36.80643 | -73.08281 | 663 ft | 117 kts | 24° |
| 2026-05-05 18:02 | -36.79909 | -73.07851 | 503 ft | 116 kts | 23° |
| 2026-05-05 18:02 | -36.79178 | -73.07428 | 362 ft | 116 kts | 23° |
| 2026-05-05 18:02 | -36.78447 | -73.07005 | 166 ft | 116 kts | 24° |
| 2026-05-05 18:03 | -36.77719 | -73.06586 | 69 ft | 116 kts | 23° |
| 2026-05-05 18:03 | -36.77093 | -73.06226 | 58 ft | 64 kts | 25° |
| 2026-05-05 18:03 | -36.76879 | -73.06112 | 55 ft | 19 kts | 16° |
| 2026-05-05 18:03 | -36.76844 | -73.06086 | 63 ft | 2 kts | 103° |
| 2026-05-05 18:04 | -36.76868 | -73.06088 | 59 ft | 7 kts | 201° |
| 2026-05-05 18:04 | -36.76935 | -73.06095 | 61 ft | 16 kts | 163° |
| 2026-05-05 18:04 | -36.76991 | -73.05981 | 61 ft | 17 kts | 115° |
| 2026-05-05 18:04 | -36.77049 | -73.05951 | 58 ft | 11 kts | 204° |
| 2026-05-05 18:05 | -36.77151 | -73.06010 | 61 ft | 19 kts | 204° |
| 2026-05-05 18:05 | -36.77277 | -73.06083 | 59 ft | 20 kts | 206° |
| 2026-05-05 18:05 | -36.77397 | -73.06156 | 59 ft | 19 kts | 204° |
| 2026-05-05 18:05 | -36.77500 | -73.06173 | 58 ft | 11 kts | 137° |
| 2026-05-05 18:06 | -36.77537 | -73.06072 | 60 ft | 9 kts | 121° |
| 2026-05-05 18:06 | -36.77564 | -73.06044 | 59 ft | 6 kts | 163° |
| 2026-05-05 18:06 | -36.77602 | -73.06034 | 57 ft | 1 kts | 168° |
| 2026-05-05 18:06 | -36.77610 | -73.06032 | 56 ft | 0 kts | 168° |